Time;durP1;ratioP1;P1;durP2;ratioP2;P2;SDS_P1;SDS_P2;PMS_P1;PMS_P2;Temp;Humidity;BMP_temperature;BMP_pressure;BME280_temperature;BME280_humidity;BME280_pressure;Samples;Min_cycle;Max_cycle;Signal;HPM_P1;HPM_P2
2021/01/30 00:01:47;;;;;;;0.00;0.00;;;15.40;57.10;;;;;;4213945;28;20410;-42
2021/01/30 00:04:08;;;;;;;0.00;0.00;;;15.30;57.40;;;;;;4213341;28;20052;-42
2021/01/30 00:06:30;;;;;;;0.00;0.00;;;15.30;58.20;;;;;;4212637;28;20052;-41
2021/01/30 00:08:51;;;;;;;0.28;0.28;;;15.40;57.50;;;;;;4211955;28;20059;-43
2021/01/30 00:11:12;;;;;;;;;;;15.50;57.30;;;;;;4213834;28;20479;-43
2021/01/30 00:13:33;;;;;;;0.47;0.47;;;15.50;57.10;;;;;;4213115;28;20455;-43
2021/01/30 00:15:54;;;;;;;0.00;0.00;;;15.50;57.40;;;;;;4213449;28;20056;-43
2021/01/30 00:18:15;;;;;;;0.30;0.30;;;15.50;58.30;;;;;;4213008;28;20102;-42
2021/01/30 00:20:37;;;;;;;;;;;15.50;57.40;;;;;;4213879;28;20048;-42
2021/01/30 00:23:01;;;;;;;0.20;0.20;;;15.50;57.30;;;;;;4212846;28;19924;-42
2021/01/30 00:25:24;;;;;;;0.00;0.00;;;15.60;57.40;;;;;;4213353;28;20150;-41
2021/01/30 00:27:45;;;;;;;0.00;0.00;;;15.60;57.40;;;;;;4212786;28;20098;-42
2021/01/30 00:30:10;;;;;;;0.00;0.00;;;15.60;57.60;;;;;;4207630;28;20109;-42
2021/01/30 00:32:30;;;;;;;0.00;0.00;;;15.50;57.80;;;;;;4213078;28;20097;-41
2021/01/30 00:34:51;;;;;;;0.00;0.00;;;15.40;57.90;;;;;;4212879;28;20513;-42
2021/01/30 00:37:14;;;;;;;0.00;0.00;;;15.30;58.10;;;;;;4213039;28;20498;-42
2021/01/30 00:39:36;;;;;;;0.00;0.00;;;15.20;58.10;;;;;;4195918;28;20137;-42
2021/01/30 00:41:57;;;;;;;0.05;0.05;;;15.10;58.40;;;;;;4207780;28;20409;-46
2021/01/30 00:44:18;;;;;;;0.00;0.00;;;15.00;58.80;;;;;;4212653;28;20109;-42
2021/01/30 00:46:39;;;;;;;2.05;1.45;;;15.00;59.10;;;;;;4212519;28;20395;-42
2021/01/30 00:49:00;;;;;;;0.25;0.25;;;15.10;59.00;;;;;;4212883;28;20130;-42
2021/01/30 00:51:23;;;;;;;0.00;0.00;;;15.20;58.60;;;;;;4211493;28;20070;-42
2021/01/30 00:53:49;;;;;;;0.00;0.00;;;15.40;58.30;;;;;;4211785;28;20177;-41
2021/01/30 00:56:12;;;;;;;0.00;0.00;;;15.40;57.90;;;;;;4212477;28;20173;-41
2021/01/30 00:58:33;;;;;;;0.00;0.00;;;15.40;57.80;;;;;;4211187;28;20048;-42
2021/01/30 01:00:55;;;;;;;0.00;0.00;;;15.50;57.80;;;;;;4211776;28;20105;-41
2021/01/30 01:03:19;;;;;;;0.00;0.00;;;15.60;57.70;;;;;;4211689;28;20052;-42
2021/01/30 01:05:52;;;;;;;0.57;0.57;;;15.70;57.30;;;;;;4211438;28;20075;-42
2021/01/30 01:08:13;;;;;;;0.00;0.00;;;15.80;57.30;;;;;;4212376;28;20445;-41
2021/01/30 01:10:35;;;;;;;0.08;0.08;;;15.80;57.10;;;;;;4196797;28;20132;-42
2021/01/30 01:12:59;;;;;;;0.00;0.00;;;15.70;57.20;;;;;;4212353;28;20179;-43
2021/01/30 01:15:21;;;;;;;0.00;0.00;;;15.70;57.30;;;;;;4212695;28;20304;-43
2021/01/30 01:17:45;;;;;;;0.00;0.00;;;15.70;57.20;;;;;;4212654;28;20064;-43
2021/01/30 01:20:12;;;;;;;0.00;0.00;;;15.60;57.40;;;;;;4212438;28;20051;-42
2021/01/30 01:22:32;;;;;;;0.00;0.00;;;15.60;57.50;;;;;;4212226;28;20106;-42
2021/01/30 01:24:53;;;;;;;0.00;0.00;;;15.50;57.80;;;;;;4212605;28;20090;-42
2021/01/30 01:27:14;;;;;;;0.00;0.00;;;15.40;58.00;;;;;;4212127;28;20476;-41
2021/01/30 01:29:35;;;;;;;0.25;0.25;;;15.50;58.00;;;;;;4211772;28;20589;-41
2021/01/30 01:31:58;;;;;;;0.00;0.00;;;15.50;57.80;;;;;;4212557;28;20200;-42
2021/01/30 01:34:21;;;;;;;0.00;0.00;;;15.50;57.90;;;;;;4212370;28;20133;-41
2021/01/30 01:36:42;;;;;;;0.20;0.17;;;15.40;57.90;;;;;;4212495;28;20449;-42
2021/01/30 01:39:03;;;;;;;0.32;0.32;;;15.30;58.10;;;;;;4211938;28;20044;-42
2021/01/30 01:41:24;;;;;;;0.00;0.00;;;15.20;58.40;;;;;;4212697;28;20052;-42
2021/01/30 01:43:45;;;;;;;0.20;0.20;;;15.10;58.70;;;;;;4212061;28;20064;-42
2021/01/30 01:46:19;;;;;;;0.00;0.00;;;15.00;59.10;;;;;;4212393;28;20056;-41
2021/01/30 01:48:45;;;;;;;0.00;0.00;;;15.00;59.20;;;;;;4211647;28;20048;-42
2021/01/30 01:51:08;;;;;;;0.00;0.00;;;15.10;59.10;;;;;;4212482;28;20056;-42
2021/01/30 01:53:33;;;;;;;0.00;0.00;;;15.30;58.80;;;;;;4211921;28;20575;-43
2021/01/30 01:55:58;;;;;;;0.00;0.00;;;15.40;58.40;;;;;;4211858;28;20052;-42
2021/01/30 01:58:22;;;;;;;0.03;0.03;;;15.50;58.20;;;;;;4195531;28;20049;-42
2021/01/30 02:00:45;;;;;;;0.50;0.50;;;15.60;57.90;;;;;;4195485;28;20057;-42
2021/01/30 02:03:12;;;;;;;0.00;0.00;;;15.70;57.70;;;;;;4195215;28;20060;-42
2021/01/30 02:05:37;;;;;;;0.00;0.00;;;15.70;57.50;;;;;;4195433;28;20831;-42
2021/01/30 02:08:02;;;;;;;0.00;0.00;;;15.80;57.50;;;;;;4199553;28;20041;-41
2021/01/30 02:10:25;;;;;;;0.52;0.22;;;15.90;57.30;;;;;;4211814;28;20117;-42
2021/01/30 02:12:48;;;;;;;0.00;0.00;;;16.10;56.90;;;;;;4212073;28;20048;-43
2021/01/30 02:15:11;;;;;;;0.00;0.00;;;16.20;56.50;;;;;;4212125;28;20415;-42
2021/01/30 02:17:41;;;;;;;0.00;0.00;;;16.30;56.40;;;;;;4211812;28;20046;-42
2021/01/30 02:20:35;;;;;;;0.00;0.00;;;16.30;56.40;;;;;;4211854;28;20109;-42
2021/01/30 02:23:16;;;;;;;0.25;0.25;;;16.30;56.30;;;;;;4212197;28;20105;-42
2021/01/30 02:26:15;;;;;;;0.00;0.00;;;16.30;56.30;;;;;;4211732;28;20074;-41
2021/01/30 02:28:46;;;;;;;0.00;0.00;;;16.20;56.60;;;;;;4211380;28;20486;-42
2021/01/30 02:31:27;;;;;;;0.10;0.10;;;16.10;56.80;;;;;;4211826;28;20048;-43
2021/01/30 02:34:00;;;;;;;;;;;16.00;57.00;;;;;;4212485;28;20070;-42
2021/01/30 02:36:31;;;;;;;0.00;0.00;;;15.90;57.50;;;;;;4213895;28;20382;-41
2021/01/30 02:38:58;;;;;;;0.00;0.00;;;15.80;57.80;;;;;;4214589;28;20055;-43
2021/01/30 02:41:25;;;;;;;0.10;0.10;;;15.80;57.80;;;;;;4214493;28;20052;-42
2021/01/30 02:43:48;;;;;;;0.00;0.00;;;15.90;57.60;;;;;;4214541;28;20056;-42
2021/01/30 02:46:14;;;;;;;0.00;0.00;;;16.00;57.30;;;;;;4214915;28;20713;-43
2021/01/30 02:48:40;;;;;;;0.00;0.00;;;16.00;57.00;;;;;;4214148;28;20060;-42
2021/01/30 02:51:05;;;;;;;0.00;0.00;;;16.00;57.10;;;;;;4214417;28;20059;-45
2021/01/30 02:53:33;;;;;;;0.28;0.28;;;16.00;57.00;;;;;;4214971;28;20138;-43
2021/01/30 02:55:56;;;;;;;0.00;0.00;;;16.10;56.90;;;;;;4214655;28;20063;-42
2021/01/30 02:58:19;;;;;;;0.00;0.00;;;16.30;56.40;;;;;;4214241;28;20769;-42
2021/01/30 03:00:42;;;;;;;0.73;0.65;;;16.50;56.10;;;;;;4214166;28;20056;-42
2021/01/30 03:03:04;;;;;;;0.00;0.00;;;16.50;55.90;;;;;;4214352;28;20109;-42
2021/01/30 03:05:24;;;;;;;1.35;1.27;;;16.50;55.90;;;;;;4214815;28;20048;-42
2021/01/30 03:08:16;;;;;;;0.00;0.00;;;16.40;56.10;;;;;;4213507;28;20109;-42
2021/01/30 03:10:40;;;;;;;;;;;16.40;56.30;;;;;;4214548;28;20048;-42
2021/01/30 03:13:09;;;;;;;0.00;0.00;;;16.20;56.30;;;;;;4214536;28;19955;-42
2021/01/30 03:15:35;;;;;;;0.00;0.00;;;16.10;56.50;;;;;;4214103;28;20052;-42
2021/01/30 03:17:58;;;;;;;0.00;0.00;;;16.00;56.90;;;;;;4214544;28;20056;-41
2021/01/30 03:20:20;;;;;;;0.00;0.00;;;15.90;56.90;;;;;;4214010;28;20574;-42
2021/01/30 03:22:48;;;;;;;0.00;0.00;;;15.90;57.10;;;;;;4214382;28;20059;-42
2021/01/30 03:25:15;;;;;;;0.00;0.00;;;15.80;57.00;;;;;;4213746;28;20387;-42
2021/01/30 03:27:36;;;;;;;0.00;0.00;;;15.70;57.40;;;;;;4214041;28;20052;-41
2021/01/30 03:29:58;;;;;;;0.00;0.00;;;15.70;57.50;;;;;;4213973;28;20131;-42
2021/01/30 03:32:20;;;;;;;0.00;0.00;;;15.80;57.10;;;;;;4213897;28;20048;-42
2021/01/30 03:34:41;;;;;;;0.00;0.00;;;15.80;57.00;;;;;;4214155;28;20052;-42
2021/01/30 03:37:02;;;;;;;0.00;0.00;;;15.80;57.10;;;;;;4213718;28;20056;-42
2021/01/30 03:39:23;;;;;;;0.15;0.15;;;15.80;57.20;;;;;;4213538;28;20139;-42
2021/01/30 03:41:45;;;;;;;0.80;0.10;;;15.70;57.40;;;;;;4214075;28;20056;-42
2021/01/30 03:44:08;;;;;;;0.00;0.00;;;15.60;57.50;;;;;;4213485;28;20048;-42
2021/01/30 03:46:31;;;;;;;0.00;0.00;;;15.50;57.70;;;;;;4213084;28;20456;-42
2021/01/30 03:48:52;;;;;;;0.00;0.00;;;15.40;58.10;;;;;;4213720;28;20563;-42
2021/01/30 03:51:13;;;;;;;0.30;0.30;;;15.60;58.00;;;;;;4213720;28;20060;-42
2021/01/30 03:53:34;;;;;;;0.68;0.68;;;15.70;57.50;;;;;;4213327;28;20151;-43
2021/01/30 03:55:55;;;;;;;0.00;0.00;;;15.90;57.10;;;;;;4213407;28;20056;-42
2021/01/30 03:58:15;;;;;;;0.83;0.83;;;16.00;56.80;;;;;;4213745;28;20056;-42
2021/01/30 04:00:37;;;;;;;0.00;0.00;;;16.20;56.60;;;;;;4213368;28;20130;-42
2021/01/30 04:02:58;;;;;;;0.20;0.20;;;16.20;56.30;;;;;;4213120;28;20642;-42
2021/01/30 04:05:21;;;;;;;0.10;0.10;;;16.30;56.30;;;;;;4213444;28;20182;-41
2021/01/30 04:07:43;;;;;;;0.43;0.43;;;16.20;56.30;;;;;;4213545;28;20063;-42
2021/01/30 04:10:06;;;;;;;1.67;1.55;;;16.20;56.30;;;;;;4213544;28;20121;-43
2021/01/30 04:12:27;;;;;;;0.20;0.20;;;16.20;56.40;;;;;;4213012;28;20056;-42
2021/01/30 04:14:48;;;;;;;0.00;0.00;;;16.10;56.50;;;;;;4213202;28;20138;-42
2021/01/30 04:17:10;;;;;;;0.00;0.00;;;16.00;56.80;;;;;;4212896;28;20044;-42
2021/01/30 04:19:31;;;;;;;0.00;0.00;;;16.00;57.00;;;;;;4213090;28;20117;-42
2021/01/30 04:21:53;;;;;;;0.00;0.00;;;16.00;57.70;;;;;;4212598;28;20440;-42
2021/01/30 04:24:14;;;;;;;0.00;0.00;;;15.90;57.10;;;;;;4213250;28;20083;-42
2021/01/30 04:26:35;;;;;;;0.00;0.00;;;15.80;57.30;;;;;;4212791;28;20426;-42
2021/01/30 04:28:56;;;;;;;0.00;0.00;;;15.80;57.50;;;;;;4212549;28;20059;-41
2021/01/30 04:31:18;;;;;;;0.00;0.00;;;15.90;57.50;;;;;;4213229;28;20100;-41
2021/01/30 04:33:40;;;;;;;0.00;0.00;;;16.00;57.30;;;;;;4211730;28;20272;-42
2021/01/30 04:36:00;;;;;;;0.00;0.00;;;16.00;57.10;;;;;;4212687;28;20058;-42
2021/01/30 04:38:21;;;;;;;0.10;0.10;;;16.10;57.00;;;;;;4196159;28;20502;-42
2021/01/30 04:40:44;;;;;;;0.00;0.00;;;16.10;57.00;;;;;;4206824;28;20132;-42
2021/01/30 04:43:17;;;;;;;0.00;0.00;;;16.30;56.60;;;;;;4212882;28;20073;-42
2021/01/30 04:45:48;;;;;;;0.10;0.10;;;16.60;56.00;;;;;;4212758;28;20059;-43
2021/01/30 04:48:19;;;;;;;0.10;0.10;;;16.70;55.80;;;;;;4212856;28;20494;-42
2021/01/30 04:50:52;;;;;;;0.00;0.00;;;16.60;55.80;;;;;;4212382;28;20306;-41
2021/01/30 04:53:22;;;;;;;0.00;0.00;;;16.60;55.90;;;;;;4212951;28;20048;-41
2021/01/30 04:55:58;;;;;;;0.00;0.00;;;16.50;56.00;;;;;;4212150;28;20048;-42
2021/01/30 04:58:27;;;;;;;0.03;0.03;;;16.50;56.20;;;;;;4195239;28;20052;-42
2021/01/30 05:01:00;;;;;;;0.00;0.00;;;16.30;56.50;;;;;;4195703;28;20056;-41
2021/01/30 05:03:48;;;;;;;0.00;0.00;;;16.20;56.80;;;;;;4196253;28;20113;-42
2021/01/30 05:06:14;;;;;;;0.00;0.00;;;16.00;57.90;;;;;;4204743;28;20052;-42
2021/01/30 05:08:40;;;;;;;0.00;0.00;;;15.90;57.60;;;;;;4212290;28;20440;-42
2021/01/30 05:11:06;;;;;;;0.00;0.00;;;15.80;57.90;;;;;;4212735;28;20497;-43
2021/01/30 05:13:33;;;;;;;0.00;0.00;;;15.70;58.00;;;;;;4212330;28;20496;-41
2021/01/30 05:15:57;;;;;;;0.00;0.00;;;15.90;57.90;;;;;;4212275;28;20044;-42
2021/01/30 05:18:22;;;;;;;0.22;0.22;;;16.00;57.60;;;;;;4212350;28;20076;-41
2021/01/30 05:20:50;;;;;;;0.00;0.00;;;16.10;57.20;;;;;;4212467;28;20579;-42
2021/01/30 05:23:13;;;;;;;0.00;0.00;;;16.20;57.10;;;;;;4212244;28;20056;-42
2021/01/30 05:25:33;;;;;;;0.00;0.00;;;16.30;56.90;;;;;;4212446;28;20151;-49
2021/01/30 05:28:25;;;;;;;1.27;0.98;;;16.30;56.70;;;;;;4212277;28;20159;-42
2021/01/30 05:30:57;;;;;;;0.00;0.00;;;16.30;56.70;;;;;;4212436;28;20523;-42
2021/01/30 05:33:32;;;;;;;0.00;0.00;;;16.20;56.80;;;;;;4212433;28;20052;-43
2021/01/30 05:36:00;;;;;;;0.00;0.00;;;16.20;57.10;;;;;;4211617;28;20135;-42
2021/01/30 05:38:39;;;;;;;0.10;0.10;;;16.20;57.00;;;;;;4212256;28;20058;-42
2021/01/30 05:41:06;;;;;;;0.20;0.20;;;16.50;56.60;;;;;;4212031;28;20056;-41
2021/01/30 05:43:37;;;;;;;0.00;0.00;;;16.60;56.10;;;;;;4212080;28;20125;-42
2021/01/30 05:46:00;;;;;;;0.00;0.00;;;16.70;55.80;;;;;;4212313;28;20497;-42
2021/01/30 05:48:25;;;;;;;0.00;0.00;;;16.70;56.40;;;;;;4212065;28;20052;-42
2021/01/30 05:50:53;;;;;;;0.35;0.35;;;16.60;55.90;;;;;;4211788;28;20569;-42
2021/01/30 05:53:20;;;;;;;0.20;0.20;;;16.60;56.00;;;;;;4212092;28;20083;-42
2021/01/30 05:55:41;;;;;;;0.20;0.20;;;16.50;56.10;;;;;;4211414;28;20075;-42
2021/01/30 05:58:06;;;;;;;0.00;0.00;;;16.50;56.40;;;;;;4211686;28;20117;-44
2021/01/30 06:00:27;;;;;;;0.00;0.00;;;16.40;56.60;;;;;;4212227;28;20056;-43
2021/01/30 06:03:05;;;;;;;0.00;0.00;;;16.30;56.80;;;;;;4211983;28;20683;-41
2021/01/30 06:05:30;;;;;;;1.20;1.15;;;16.30;56.80;;;;;;4211685;28;20441;-42
2021/01/30 06:07:52;;;;;;;0.10;0.10;;;16.20;56.80;;;;;;4211424;28;20529;-42
2021/01/30 06:10:28;;;;;;;0.00;0.00;;;16.10;57.10;;;;;;4213514;28;20054;-42
2021/01/30 06:13:07;;;;;;;0.00;0.00;;;16.10;57.30;;;;;;4214952;28;20052;-41
2021/01/30 06:15:35;;;;;;;0.00;0.00;;;16.20;57.20;;;;;;4214816;28;20048;-42
2021/01/30 06:17:57;;;;;;;0.15;0.15;;;16.20;56.90;;;;;;4214811;28;20083;-41
2021/01/30 06:20:21;;;;;;;0.00;0.00;;;16.20;56.90;;;;;;4214121;28;20064;-42
2021/01/30 06:22:43;;;;;;;0.00;0.00;;;16.20;57.00;;;;;;4214524;28;20052;-41
2021/01/30 06:25:25;;;;;;;1.23;1.23;;;16.30;56.90;;;;;;4214438;28;20055;-42
2021/01/30 06:27:46;;;;;;;;;;;16.30;56.80;;;;;;4198364;28;20056;-42
2021/01/30 06:30:12;;;;;;;0.43;0.43;;;16.40;56.50;;;;;;4198279;28;19943;-42
2021/01/30 06:32:38;;;;;;;0.10;0.10;;;16.60;56.10;;;;;;4198084;28;20163;-42
2021/01/30 06:35:12;;;;;;;0.00;0.00;;;16.80;55.60;;;;;;4197948;28;20143;-42
2021/01/30 06:37:40;;;;;;;0.43;0.43;;;16.90;55.30;;;;;;4200730;28;20056;-42
2021/01/30 06:40:06;;;;;;;0.08;0.08;;;16.90;55.30;;;;;;4214734;28;20044;-41
2021/01/30 06:42:31;;;;;;;0.00;0.00;;;16.80;55.50;;;;;;4214669;28;20059;-41
2021/01/30 06:45:00;;;;;;;0.85;0.85;;;16.80;55.70;;;;;;4215067;28;20056;-41
2021/01/30 06:47:22;;;;;;;0.00;0.00;;;16.80;56.50;;;;;;4198721;28;20052;-42
2021/01/30 06:49:47;;;;;;;0.00;0.00;;;16.70;55.90;;;;;;4197696;28;20055;-43
2021/01/30 06:52:11;;;;;;;0.52;0.52;;;16.60;56.20;;;;;;4199197;28;20052;-41
2021/01/30 06:54:33;;;;;;;0.10;0.10;;;16.50;56.40;;;;;;4200698;28;20055;-43
2021/01/30 06:57:02;;;;;;;0.03;0.03;;;16.50;56.70;;;;;;4214213;28;20105;-42
2021/01/30 06:59:28;;;;;;;0.00;0.00;;;16.50;56.80;;;;;;4197687;28;20070;-42
2021/01/30 07:01:49;;;;;;;0.00;0.00;;;16.60;56.80;;;;;;4197405;28;20455;-41
2021/01/30 07:04:43;;;;;;;0.00;0.00;;;16.60;56.70;;;;;;4197518;28;20048;-42
2021/01/30 07:07:13;;;;;;;0.00;0.00;;;16.50;56.90;;;;;;4211328;28;20498;-41
2021/01/30 07:09:59;;;;;;;0.00;0.00;;;16.60;57.40;;;;;;4213138;28;20060;-42
2021/01/30 07:12:24;;;;;;;0.85;0.60;;;16.60;57.80;;;;;;4213373;28;20142;-42
2021/01/30 07:15:18;;;;;;;0.00;0.00;;;16.70;57.80;;;;;;4214010;28;20048;-42
2021/01/30 07:18:02;;;;;;;0.00;0.00;;;16.60;57.80;;;;;;4214242;28;20056;-41
2021/01/30 07:20:33;;;;;;;0.10;0.10;;;16.50;57.90;;;;;;4214252;28;20059;-42
2021/01/30 07:23:00;;;;;;;0.10;0.10;;;16.60;57.60;;;;;;4213317;28;20517;-41
2021/01/30 07:25:23;;;;;;;0.20;0.20;;;16.60;57.30;;;;;;4210454;28;20043;-42
2021/01/30 07:27:50;;;;;;;0.00;0.00;;;16.60;57.40;;;;;;4202521;28;20093;-41
2021/01/30 07:30:15;;;;;;;0.08;0.08;;;16.50;57.40;;;;;;4197349;28;20470;-41
2021/01/30 07:32:38;;;;;;;0.28;0.28;;;16.50;57.50;;;;;;4198578;28;20464;-41
2021/01/30 07:35:06;;;;;;;1.77;1.67;;;16.50;58.10;;;;;;4209849;28;20044;-41
2021/01/30 07:37:39;;;;;;;0.10;0.10;;;16.50;57.50;;;;;;4213745;28;20102;-41
2021/01/30 07:40:06;;;;;;;0.00;0.00;;;16.40;57.70;;;;;;4213502;28;20511;-41
2021/01/30 07:42:37;;;;;;;0.00;0.00;;;16.40;57.80;;;;;;4208487;28;20589;-41
2021/01/30 07:45:06;;;;;;;6.70;2.53;;;16.40;57.70;;;;;;4212950;28;20486;-47
2021/01/30 07:47:36;;;;;;;2.38;0.52;;;16.40;57.70;;;;;;4213726;28;20059;-41
2021/01/30 07:50:02;;;;;;;1.92;1.25;;;16.40;57.80;;;;;;4213054;28;20052;-40
2021/01/30 07:52:27;;;;;;;0.00;0.00;;;16.30;57.80;;;;;;4213337;28;20056;-41
2021/01/30 07:54:52;;;;;;;0.20;0.20;;;16.30;57.90;;;;;;4207305;28;20048;-41
2021/01/30 07:57:41;;;;;;;0.00;0.00;;;16.20;58.00;;;;;;4213282;28;20044;-40
2021/01/30 08:00:08;;;;;;;0.00;0.00;;;16.10;58.30;;;;;;4212778;28;20060;-41
2021/01/30 08:03:09;;;;;;;0.75;0.47;;;16.00;58.60;;;;;;4212642;28;20093;-40
2021/01/30 08:05:38;;;;;;;0.00;0.00;;;15.90;58.80;;;;;;4210026;28;20418;-40
2021/01/30 08:08:11;;;;;;;0.15;0.15;;;16.00;58.60;;;;;;4213441;28;20052;-41
2021/01/30 08:10:39;;;;;;;0.00;0.00;;;16.10;58.20;;;;;;4212498;28;20136;-41
2021/01/30 08:13:23;;;;;;;0.10;0.10;;;16.10;57.70;;;;;;4212974;28;20121;-41
2021/01/30 08:15:48;;;;;;;0.10;0.10;;;16.20;57.40;;;;;;4212739;28;20044;-41
2021/01/30 08:18:22;;;;;;;0.00;0.00;;;16.20;57.30;;;;;;4212437;28;20560;-41
2021/01/30 08:20:49;;;;;;;0.00;0.00;;;16.20;57.20;;;;;;4213086;28;20051;-41
2021/01/30 08:23:25;;;;;;;0.00;0.00;;;16.20;57.10;;;;;;4210030;28;20120;-41
2021/01/30 08:25:51;;;;;;;0.00;0.00;;;16.30;57.00;;;;;;4213273;28;20048;-42
2021/01/30 08:28:18;;;;;;;0.00;0.00;;;16.20;57.30;;;;;;4212950;28;20071;-41
2021/01/30 08:30:41;;;;;;;0.55;0.55;;;16.10;57.40;;;;;;4212619;28;20511;-41
2021/01/30 08:33:06;;;;;;;0.10;0.10;;;16.00;57.50;;;;;;4211491;28;20521;-42
2021/01/30 08:35:44;;;;;;;0.00;0.00;;;16.00;57.50;;;;;;4212607;28;20052;-42
2021/01/30 08:38:07;;;;;;;0.00;0.00;;;15.90;57.60;;;;;;4211532;28;20405;-41
2021/01/30 08:40:49;;;;;;;0.52;0.52;;;15.70;57.60;;;;;;4212531;28;20037;-41
2021/01/30 08:43:20;;;;;;;0.00;0.00;;;15.60;58.10;;;;;;4212021;28;20044;-41
2021/01/30 08:45:41;;;;;;;0.00;0.00;;;15.70;58.20;;;;;;4198660;28;20135;-41
2021/01/30 08:48:11;;;;;;;0.30;0.30;;;15.70;58.70;;;;;;4212291;28;20046;-41
2021/01/30 08:50:41;;;;;;;0.35;0.35;;;15.60;58.90;;;;;;4207390;28;20056;-41
2021/01/30 08:53:12;;;;;;;0.08;0.08;;;15.60;59.10;;;;;;4212766;28;20056;-40
2021/01/30 08:55:51;;;;;;;0.50;0.40;;;15.70;58.90;;;;;;4209123;28;20593;-40
2021/01/30 08:58:45;;;;;;;0.00;0.00;;;15.90;58.60;;;;;;4210511;28;20051;-40
2021/01/30 09:01:08;;;;;;;0.13;0.13;;;16.00;58.30;;;;;;4209845;28;20051;-40
2021/01/30 09:03:47;;;;;;;0.00;0.00;;;16.00;58.90;;;;;;4212279;28;20048;-42
2021/01/30 09:06:09;;;;;;;0.32;0.30;;;16.00;58.40;;;;;;4212342;28;20078;-40
2021/01/30 09:09:01;;;;;;;0.10;0.10;;;16.00;58.20;;;;;;4212311;28;20131;-40
2021/01/30 09:11:39;;;;;;;4.43;0.93;;;16.20;57.80;;;;;;4211961;28;20138;-41
2021/01/30 09:14:08;;;;;;;0.52;0.52;;;16.40;57.30;;;;;;4212078;28;20055;-41
2021/01/30 09:16:37;;;;;;;0.22;0.22;;;16.50;57.00;;;;;;4212351;28;20055;-41
2021/01/30 09:19:01;;;;;;;0.35;0.35;;;16.50;57.00;;;;;;4212291;28;20085;-41
2021/01/30 09:21:37;;;;;;;0.30;0.30;;;16.40;57.20;;;;;;4203501;28;20059;-41
2021/01/30 09:24:19;;;;;;;0.10;0.10;;;16.30;57.50;;;;;;4211921;28;20406;-42
2021/01/30 09:26:51;;;;;;;0.63;0.63;;;16.20;57.90;;;;;;4212839;28;20063;-41
2021/01/30 09:29:17;;;;;;;21.92;0.85;;;16.10;58.20;;;;;;4211924;28;20059;-41
2021/01/30 09:31:37;;;;;;;1.77;1.67;;;16.10;58.30;;;;;;4195635;28;20134;-41
2021/01/30 09:34:03;;;;;;;9.32;3.92;;;16.10;58.10;;;;;;4210107;28;20482;-41
2021/01/30 09:36:30;;;;;;;0.00;0.00;;;16.30;57.90;;;;;;4211928;28;20048;-42
2021/01/30 09:38:58;;;;;;;2.03;1.88;;;16.30;57.60;;;;;;4211735;28;20134;-43
2021/01/30 09:41:23;;;;;;;2.22;2.03;;;16.30;57.60;;;;;;4211515;28;20544;-40
2021/01/30 09:43:45;;;;;;;0.43;0.43;;;16.20;57.60;;;;;;4212005;28;20059;-41
2021/01/30 09:46:11;;;;;;;0.90;0.90;;;16.10;57.90;;;;;;4215341;28;20070;-41
2021/01/30 09:48:35;;;;;;;0.57;0.57;;;16.00;58.20;;;;;;4214838;28;20067;-42
2021/01/30 09:51:00;;;;;;;1.65;1.00;;;15.90;58.40;;;;;;4215205;28;20569;-41
2021/01/30 09:53:27;;;;;;;0.30;0.30;;;15.80;58.50;;;;;;4215034;28;20052;-40
2021/01/30 09:56:07;;;;;;;0.20;0.20;;;15.60;59.00;;;;;;4215171;28;20073;-40
2021/01/30 09:58:29;;;;;;;2.40;1.25;;;15.70;59.00;;;;;;4214184;28;20130;-41
2021/01/30 10:00:51;;;;;;;0.00;0.00;;;15.90;58.60;;;;;;4214931;28;20062;-50
2021/01/30 10:03:18;;;;;;;2.05;1.17;;;16.10;58.10;;;;;;4215233;28;20044;-41
2021/01/30 10:05:39;;;;;;;0.75;0.75;;;16.30;57.70;;;;;;4211739;28;20044;-41
2021/01/30 10:08:13;;;;;;;1.45;1.45;;;16.90;56.50;;;;;;4213174;28;20486;-41
2021/01/30 10:10:34;;;;;;;1.00;1.00;;;17.70;54.40;;;;;;4214768;28;20565;-42
2021/01/30 10:12:58;;;;;;;1.10;1.10;;;18.60;52.50;;;;;;4215090;28;20502;-41
2021/01/30 10:15:27;;;;;;;3.78;2.70;;;19.20;50.70;;;;;;4215336;28;20585;-40
2021/01/30 10:17:49;;;;;;;0.38;0.38;;;19.80;49.50;;;;;;4215158;28;20048;-43
2021/01/30 10:20:15;;;;;;;2.20;1.88;;;20.10;48.60;;;;;;4214891;28;20063;-41
2021/01/30 10:22:40;;;;;;;0.60;0.60;;;20.30;48.20;;;;;;4216507;28;20390;-41
2021/01/30 10:25:04;;;;;;;0.20;0.20;;;20.20;48.30;;;;;;4210720;28;20440;-41
2021/01/30 10:27:29;;;;;;;2.42;2.22;;;20.10;48.50;;;;;;4214955;28;20055;-41
2021/01/30 10:29:52;;;;;;;0.38;0.38;;;19.80;49.10;;;;;;4213785;28;20441;-44
2021/01/30 10:32:19;;;;;;;3.70;2.15;;;19.50;49.80;;;;;;4214251;28;20143;-42
2021/01/30 10:34:46;;;;;;;0.63;0.63;;;19.10;50.60;;;;;;4213153;28;20052;-46
2021/01/30 10:37:13;;;;;;;0.10;0.10;;;18.80;51.30;;;;;;4214292;28;20109;-42
2021/01/30 10:39:36;;;;;;;0.40;0.40;;;18.60;51.80;;;;;;4214919;28;20126;-43
2021/01/30 10:42:02;;;;;;;1.27;1.23;;;18.50;52.30;;;;;;4214895;28;20056;-43
2021/01/30 10:44:28;;;;;;;0.88;0.88;;;18.30;52.60;;;;;;4198151;28;20053;-42
2021/01/30 10:46:58;;;;;;;1.95;1.85;;;18.10;52.80;;;;;;4198307;28;20052;-42
2021/01/30 10:49:24;;;;;;;0.47;0.47;;;17.80;53.50;;;;;;4197964;28;20053;-42
2021/01/30 10:51:46;;;;;;;0.00;0.00;;;17.60;54.00;;;;;;4205355;28;20497;-42
2021/01/30 10:54:21;;;;;;;0.60;0.60;;;17.40;54.30;;;;;;4214273;28;20113;-41
2021/01/30 10:56:42;;;;;;;0.22;0.22;;;17.30;54.70;;;;;;4212290;28;20127;-41
2021/01/30 10:59:21;;;;;;;3.20;1.55;;;17.20;54.60;;;;;;4212771;28;20044;-41
2021/01/30 11:01:42;;;;;;;0.25;0.25;;;17.20;54.40;;;;;;4211533;28;20055;-42
2021/01/30 11:04:04;;;;;;;2.05;1.95;;;17.40;54.40;;;;;;4214370;28;20131;-41
2021/01/30 11:06:31;;;;;;;0.22;0.22;;;17.40;54.00;;;;;;4214546;28;20137;-41
2021/01/30 11:08:54;;;;;;;0.82;0.80;;;17.50;53.90;;;;;;4214006;28;20055;-41
2021/01/30 11:11:25;;;;;;;0.13;0.13;;;17.70;53.60;;;;;;4198018;28;20494;-41
2021/01/30 11:13:46;;;;;;;0.28;0.28;;;17.70;53.10;;;;;;4214549;28;20484;-41
2021/01/30 11:16:12;;;;;;;0.55;0.55;;;17.70;53.10;;;;;;4213890;28;20052;-40
2021/01/30 11:18:36;;;;;;;0.65;0.65;;;17.80;52.90;;;;;;4213476;28;20080;-41
2021/01/30 11:20:58;;;;;;;0.17;0.17;;;17.90;52.80;;;;;;4214314;28;20056;-41
2021/01/30 11:23:41;;;;;;;0.00;0.00;;;17.90;52.50;;;;;;4213985;28;20056;-41
2021/01/30 11:26:21;;;;;;;0.52;0.52;;;18.00;52.40;;;;;;4214413;28;20048;-40
2021/01/30 11:28:42;;;;;;;3.40;3.10;;;18.20;52.10;;;;;;4213999;28;20142;-41
2021/01/30 11:31:04;;;;;;;0.30;0.30;;;18.30;51.70;;;;;;4213890;28;20056;-40
2021/01/30 11:33:25;;;;;;;0.22;0.22;;;18.20;51.60;;;;;;4214359;28;20089;-41
2021/01/30 11:35:52;;;;;;;;;;;18.10;51.80;;;;;;4213974;28;20513;-41
2021/01/30 11:38:16;;;;;;;4.68;0.70;;;17.90;52.20;;;;;;4214010;28;19928;-41
2021/01/30 11:40:39;;;;;;;0.10;0.10;;;17.70;52.70;;;;;;4213662;28;20059;-40
2021/01/30 11:43:01;;;;;;;0.10;0.10;;;17.70;53.00;;;;;;4197469;28;20423;-40
2021/01/30 11:45:22;;;;;;;0.22;0.22;;;17.90;52.60;;;;;;4197142;28;20044;-41
2021/01/30 11:47:43;;;;;;;0.05;0.05;;;18.00;52.30;;;;;;4213316;28;20051;-40
2021/01/30 11:50:07;;;;;;;0.45;0.45;;;18.00;52.40;;;;;;4213702;28;20647;-40
2021/01/30 11:52:29;;;;;;;0.10;0.10;;;17.80;52.60;;;;;;4213366;28;20044;-40
2021/01/30 11:54:50;;;;;;;1.35;1.30;;;17.70;52.80;;;;;;4213217;28;20079;-40
2021/01/30 11:57:11;;;;;;;;;;;17.60;53.10;;;;;;4214225;28;20052;-40
2021/01/30 11:59:33;;;;;;;0.00;0.00;;;17.70;53.20;;;;;;4213077;28;19931;-41
2021/01/30 12:01:54;;;;;;;1.10;0.98;;;17.80;53.00;;;;;;4213626;28;20309;-41
2021/01/30 12:04:15;;;;;;;0.55;0.38;;;17.90;52.80;;;;;;4213190;28;20518;-40
2021/01/30 12:06:36;;;;;;;15.30;1.15;;;18.00;52.50;;;;;;4211990;28;20052;-42
2021/01/30 12:08:57;;;;;;;;;;;18.20;52.40;;;;;;4213526;28;20056;-41
2021/01/30 12:11:18;;;;;;;0.10;0.10;;;18.30;52.30;;;;;;4213205;28;19931;-40
2021/01/30 12:13:39;;;;;;;;;;;18.40;52.00;;;;;;4213593;28;20061;-41
2021/01/30 12:16:01;;;;;;;0.00;0.00;;;18.40;52.10;;;;;;4213284;28;19939;-41
2021/01/30 12:18:22;;;;;;;0.00;0.00;;;18.20;52.40;;;;;;4212940;28;20052;-42
2021/01/30 12:20:44;;;;;;;0.00;0.00;;;18.00;52.80;;;;;;4213455;28;20052;-41
2021/01/30 12:23:05;;;;;;;0.00;0.00;;;17.90;53.30;;;;;;4212831;28;20056;-41
2021/01/30 12:25:26;;;;;;;;;;;17.70;53.70;;;;;;4213848;28;20764;-40
2021/01/30 12:27:51;;;;;;;1.00;1.00;;;17.50;54.20;;;;;;4212791;28;19924;-40
2021/01/30 12:30:12;;;;;;;0.45;0.45;;;17.30;54.20;;;;;;4213163;28;20121;-43
2021/01/30 12:32:35;;;;;;;0.10;0.10;;;17.30;54.50;;;;;;4212741;28;20058;-43
2021/01/30 12:34:56;;;;;;;2.25;0.93;;;17.30;54.40;;;;;;4212684;28;20706;-41
2021/01/30 12:37:17;;;;;;;0.10;0.10;;;17.30;54.50;;;;;;4212306;28;20066;-41
2021/01/30 12:39:42;;;;;;;0.00;0.00;;;17.10;54.50;;;;;;4213021;28;20134;-41
2021/01/30 12:42:04;;;;;;;0.00;0.00;;;17.00;55.10;;;;;;4212586;28;20058;-41
2021/01/30 12:44:25;;;;;;;1.30;1.20;;;16.90;55.60;;;;;;4213440;28;20074;-40
2021/01/30 12:46:47;;;;;;;0.10;0.10;;;16.70;56.00;;;;;;4203276;28;20131;-40